Time;durP1;ratioP1;P1;durP2;ratioP2;P2;SDS_P1;SDS_P2;PMS_P1;PMS_P2;Temp;Humidity;BMP_temperature;BMP_pressure;BME280_temperature;BME280_humidity;BME280_pressure;Samples;Min_cycle;Max_cycle;Signal;HPM_P1;HPM_P2
2023/03/22 00:02:13;;;;;;;11.50;7.15;;;11.60;99.90;;;;;;5031659;28;20705;-45
2023/03/22 00:04:40;;;;;;;10.43;6.90;;;11.60;99.90;;;;;;5032105;28;20195;-45
2023/03/22 00:07:06;;;;;;;13.77;7.55;;;11.50;99.90;;;;;;5032108;28;20174;-45
2023/03/22 00:09:31;;;;;;;13.90;6.95;;;11.40;99.90;;;;;;5032483;28;20175;-45
2023/03/22 00:11:57;;;;;;;12.25;7.03;;;;;;;;;;5031959;28;20186;-45
2023/03/22 00:14:23;;;;;;;14.13;6.82;;;11.40;99.90;;;;;;5032201;28;20175;-45
2023/03/22 00:16:48;;;;;;;10.30;6.43;;;11.40;99.90;;;;;;5031996;28;20169;-45
2023/03/22 00:19:15;;;;;;;9.93;6.68;;;11.30;99.90;;;;;;5032148;28;20168;-45
2023/03/22 00:21:40;;;;;;;8.38;6.65;;;11.20;99.90;;;;;;5032049;28;20564;-45
2023/03/22 00:24:06;;;;;;;15.00;7.13;;;11.30;99.90;;;;;;5031966;28;20255;-45
2023/03/22 00:26:32;;;;;;;15.95;8.75;;;11.30;99.90;;;;;;5032306;28;20265;-45
2023/03/22 00:28:58;;;;;;;15.20;9.63;;;11.40;99.90;;;;;;5031713;28;20163;-45
2023/03/22 00:31:23;;;;;;;18.42;8.68;;;11.30;99.90;;;;;;5031610;28;20237;-45
2023/03/22 00:33:49;;;;;;;15.25;9.38;;;11.30;99.90;;;;;;5031718;28;20636;-45
2023/03/22 00:36:14;;;;;;;18.08;9.52;;;11.30;99.90;;;;;;5031508;28;20581;-45
2023/03/22 00:38:40;;;;;;;17.48;10.40;;;11.30;99.90;;;;;;5031766;28;20175;-45
2023/03/22 00:41:17;;;;;;;20.15;9.90;;;11.30;99.90;;;;;;5031860;28;20163;-45
2023/03/22 00:43:44;;;;;;;13.20;8.65;;;11.20;99.90;;;;;;5031912;28;20163;-45
2023/03/22 00:46:11;;;;;;;13.88;8.52;;;11.00;99.90;;;;;;5031600;28;20674;-45
2023/03/22 00:48:37;;;;;;;13.57;7.82;;;11.00;99.90;;;;;;5031513;28;20213;-45
2023/03/22 00:51:03;;;;;;;14.18;8.27;;;11.00;99.90;;;;;;5031977;28;20179;-45
2023/03/22 00:53:28;;;;;;;16.58;8.65;;;10.90;99.90;;;;;;5031515;28;20317;-45
2023/03/22 00:55:56;;;;;;;14.88;8.65;;;10.90;99.90;;;;;;5031413;28;20177;-45
2023/03/22 00:58:21;;;;;;;14.10;8.55;;;10.80;99.90;;;;;;5031615;28;20530;-45
2023/03/22 01:00:47;;;;;;;16.75;9.15;;;10.80;99.90;;;;;;5031064;28;20178;-48
2023/03/22 01:03:14;;;;;;;20.00;10.05;;;10.80;99.90;;;;;;5031253;28;20179;-45
2023/03/22 01:05:43;;;;;;;15.45;9.50;;;10.80;99.90;;;;;;5031791;28;20222;-45
2023/03/22 01:08:09;;;;;;;16.65;9.80;;;10.80;99.90;;;;;;5030867;28;20218;-45
2023/03/22 01:10:39;;;;;;;15.70;9.77;;;10.80;99.90;;;;;;5030996;28;20526;-45
2023/03/22 01:13:06;;;;;;;18.70;10.77;;;10.80;99.90;;;;;;5031257;28;20175;-45
2023/03/22 01:15:32;;;;;;;24.80;10.50;;;10.80;99.90;;;;;;5031761;28;20255;-46
2023/03/22 01:17:58;;;;;;;13.27;9.98;;;10.80;99.90;;;;;;5031299;28;20172;-49
2023/03/22 01:20:24;;;;;;;14.65;9.90;;;10.80;99.90;;;;;;5031309;28;20664;-45
2023/03/22 01:22:50;;;;;;;16.85;9.20;;;10.80;99.90;;;;;;5031134;28;20179;-45
2023/03/22 01:25:16;;;;;;;13.93;8.85;;;10.90;99.90;;;;;;5034510;28;20207;-45
2023/03/22 01:27:42;;;;;;;11.95;7.80;;;10.90;99.90;;;;;;5035169;28;20254;-45
2023/03/22 01:30:08;;;;;;;13.48;8.40;;;10.90;99.90;;;;;;5035255;28;20255;-45
2023/03/22 01:32:35;;;;;;;15.52;7.53;;;10.90;99.90;;;;;;5035590;28;20217;-45
2023/03/22 01:35:01;;;;;;;15.65;8.95;;;10.80;99.90;;;;;;5035475;28;20541;-45
2023/03/22 01:37:26;;;;;;;15.30;9.48;;;10.70;99.90;;;;;;5034840;28;20213;-46
2023/03/22 01:39:54;;;;;;;15.27;8.57;;;10.70;99.90;;;;;;5034853;28;20583;-46
2023/03/22 01:42:21;;;;;;;19.02;9.52;;;10.70;99.90;;;;;;5035009;28;20171;-45
2023/03/22 01:45:12;;;;;;;17.23;8.73;;;10.60;99.90;;;;;;5034977;28;20210;-45
2023/03/22 01:47:40;;;;;;;12.98;8.07;;;10.50;99.90;;;;;;5034668;28;20171;-45
2023/03/22 01:50:07;;;;;;;14.35;7.70;;;10.50;99.90;;;;;;5034410;28;20203;-45
2023/03/22 01:52:33;;;;;;;17.83;8.65;;;10.40;99.90;;;;;;5035310;28;20171;-45
2023/03/22 01:54:59;;;;;;;15.82;8.45;;;10.40;99.90;;;;;;5034648;28;20160;-45
2023/03/22 01:57:24;;;;;;;14.85;8.63;;;10.40;99.90;;;;;;5034557;28;20573;-45
2023/03/22 01:59:50;;;;;;;17.52;9.15;;;10.30;99.90;;;;;;5034612;28;20237;-45
2023/03/22 02:02:20;;;;;;;18.63;8.15;;;10.40;99.90;;;;;;5033658;28;20211;-45
2023/03/22 02:04:50;;;;;;;14.40;9.25;;;10.40;99.90;;;;;;5033736;28;20230;-45
2023/03/22 02:07:24;;;;;;;17.88;7.88;;;10.30;99.90;;;;;;5033669;28;20171;-45
2023/03/22 02:09:51;;;;;;;19.40;8.20;;;10.20;99.90;;;;;;5034106;28;20174;-45
2023/03/22 02:12:29;;;;;;;16.27;7.78;;;10.20;99.90;;;;;;5033897;28;20171;-45
2023/03/22 02:15:09;;;;;;;16.75;9.13;;;10.30;99.90;;;;;;5033900;28;20177;-45
2023/03/22 02:17:50;;;;;;;18.77;9.18;;;10.20;99.90;;;;;;5033518;28;20650;-45
2023/03/22 02:20:54;;;;;;;20.27;9.15;;;10.20;99.90;;;;;;5033682;28;20697;-45
2023/03/22 02:23:47;;;;;;;12.32;7.28;;;10.20;99.90;;;;;;5021505;28;20687;-45
2023/03/22 02:26:35;;;;;;;17.00;7.63;;;10.30;99.90;;;;;;5033429;28;20666;-45
2023/03/22 02:29:30;;;;;;;16.02;7.13;;;10.30;99.90;;;;;;5033941;28;20164;-45
2023/03/22 02:32:20;;;;;;;20.67;8.07;;;10.30;99.90;;;;;;5033579;28;20168;-45
2023/03/22 02:34:48;;;;;;;24.05;9.30;;;10.40;99.90;;;;;;5033094;28;20172;-47
2023/03/22 02:37:51;;;;;;;13.98;8.18;;;10.40;99.90;;;;;;5032715;28;20247;-45
2023/03/22 02:40:29;;;;;;;13.07;8.20;;;10.30;99.90;;;;;;5032275;28;20249;-45
2023/03/22 02:43:17;;;;;;;11.95;7.95;;;10.20;99.90;;;;;;5033535;28;20545;-45
2023/03/22 02:46:17;;;;;;;10.90;7.88;;;10.20;99.90;;;;;;5033178;28;20286;-45
2023/03/22 02:49:01;;;;;;;11.70;7.47;;;10.20;99.90;;;;;;5033430;28;20168;-45
2023/03/22 02:51:56;;;;;;;10.73;7.78;;;10.10;99.90;;;;;;5032909;28;20179;-45
2023/03/22 02:54:34;;;;;;;12.80;8.05;;;10.10;99.90;;;;;;5032981;28;20172;-45
2023/03/22 02:57:14;;;;;;;12.32;7.90;;;10.10;99.90;;;;;;5033367;28;20206;-45
2023/03/22 02:59:42;;;;;;;11.00;7.97;;;10.10;99.90;;;;;;5033240;28;20689;-45
2023/03/22 03:02:12;;;;;;;10.40;6.70;;;10.10;99.90;;;;;;5032926;28;20731;-45
2023/03/22 03:04:43;;;;;;;11.60;7.20;;;10.10;99.90;;;;;;5032826;28;20650;-45
2023/03/22 03:07:13;;;;;;;17.35;9.10;;;10.10;99.90;;;;;;5032631;28;20189;-45
2023/03/22 03:09:41;;;;;;;16.48;7.95;;;10.10;99.90;;;;;;5032857;28;20183;-45
2023/03/22 03:12:17;;;;;;;21.70;9.15;;;10.20;99.90;;;;;;5032618;28;20561;-45
2023/03/22 03:14:43;;;;;;;23.83;8.65;;;10.20;99.90;;;;;;5032976;28;20181;-45
2023/03/22 03:17:43;;;;;;;24.25;10.13;;;10.30;99.90;;;;;;5032560;28;20566;-45
2023/03/22 03:20:12;;;;;;;19.13;7.95;;;10.30;99.90;;;;;;5032647;28;20178;-45
2023/03/22 03:23:12;;;;;;;25.52;9.43;;;10.30;99.90;;;;;;5032217;28;20181;-45
2023/03/22 03:26:05;;;;;;;14.60;7.22;;;10.40;99.90;;;;;;5032066;28;20215;-45
2023/03/22 03:28:37;;;;;;;19.77;8.80;;;10.40;99.90;;;;;;5031678;28;20535;-45
2023/03/22 03:31:14;;;;;;;22.10;8.65;;;10.40;99.90;;;;;;5032651;28;20249;-46
2023/03/22 03:34:09;;;;;;;16.58;6.93;;;10.50;99.90;;;;;;5032728;28;20178;-45
2023/03/22 03:36:38;;;;;;;17.45;6.60;;;10.40;99.90;;;;;;5030121;28;20700;-45
2023/03/22 03:39:08;;;;;;;16.50;7.60;;;10.40;99.90;;;;;;5032681;28;20258;-45
2023/03/22 03:41:34;;;;;;;28.15;8.15;;;10.40;99.90;;;;;;5031964;28;20167;-45
2023/03/22 03:44:01;;;;;;;28.85;9.80;;;10.40;99.90;;;;;;5032322;28;20178;-45
2023/03/22 03:46:28;;;;;;;23.10;8.30;;;;;;;;;;5031758;28;20184;-45
2023/03/22 03:48:56;;;;;;;30.42;9.15;;;10.40;99.90;;;;;;5032221;28;20183;-45
2023/03/22 03:51:22;;;;;;;25.13;8.32;;;10.50;99.90;;;;;;5031283;28;20175;-45
2023/03/22 03:53:47;;;;;;;29.90;8.68;;;10.40;99.90;;;;;;5031670;28;20172;-45
2023/03/22 03:56:13;;;;;;;22.77;8.15;;;10.40;99.90;;;;;;5032138;28;20167;-45
2023/03/22 03:58:39;;;;;;;16.33;8.02;;;10.40;99.90;;;;;;5032044;28;20172;-46
2023/03/22 04:01:05;;;;;;;27.08;8.25;;;10.40;99.90;;;;;;5031982;28;20175;-46
2023/03/22 04:03:31;;;;;;;30.85;8.30;;;10.50;99.90;;;;;;5032127;28;20245;-45
2023/03/22 04:05:58;;;;;;;17.80;8.00;;;;;;;;;;5031536;28;20207;-45
2023/03/22 04:08:24;;;;;;;29.30;8.95;;;10.40;99.90;;;;;;5031361;28;20230;-45
2023/03/22 04:10:50;;;;;;;31.02;8.90;;;10.60;99.90;;;;;;5031269;28;20202;-45
2023/03/22 04:13:17;;;;;;;26.38;9.05;;;10.60;99.90;;;;;;5031471;28;20213;-45
2023/03/22 04:15:42;;;;;;;27.90;9.38;;;10.50;99.90;;;;;;5031712;28;20174;-45
2023/03/22 04:18:10;;;;;;;27.02;7.88;;;10.50;99.90;;;;;;5031513;28;20543;-46
2023/03/22 04:20:40;;;;;;;22.73;7.85;;;10.50;99.90;;;;;;5031590;28;20170;-46
2023/03/22 04:23:09;;;;;;;20.67;7.57;;;10.50;99.90;;;;;;5031694;28;20171;-50
2023/03/22 04:25:36;;;;;;;21.77;7.82;;;10.50;99.90;;;;;;5031278;28;20207;-45
2023/03/22 04:28:03;;;;;;;16.05;6.68;;;10.40;99.90;;;;;;5031847;28;20220;-48
2023/03/22 04:30:29;;;;;;;22.42;7.65;;;10.40;99.90;;;;;;5031691;28;20174;-47
2023/03/22 04:32:55;;;;;;;20.50;7.80;;;;;;;;;;5031083;28;20183;-45
2023/03/22 04:35:21;;;;;;;15.30;6.75;;;10.30;99.90;;;;;;5031234;28;20171;-51
2023/03/22 04:37:47;;;;;;;16.55;5.70;;;10.30;99.90;;;;;;5031445;28;20213;-52
2023/03/22 04:40:19;;;;;;;13.02;6.05;;;10.20;99.90;;;;;;5031397;28;20575;-54
2023/03/22 04:42:45;;;;;;;12.60;6.70;;;10.10;99.90;;;;;;5031210;28;20753;-54
2023/03/22 04:45:11;;;;;;;10.00;6.05;;;10.00;99.90;;;;;;5030948;28;20206;-54
2023/03/22 04:47:38;;;;;;;10.43;6.47;;;10.00;99.90;;;;;;5031420;28;20185;-47
2023/03/22 04:50:05;;;;;;;14.43;7.25;;;9.90;99.90;;;;;;5030820;28;20181;-45
2023/03/22 04:52:30;;;;;;;9.80;5.93;;;9.90;99.90;;;;;;5031390;28;20258;-47
2023/03/22 04:54:56;;;;;;;10.82;6.28;;;9.90;99.90;;;;;;5031112;28;20246;-45
2023/03/22 04:57:21;;;;;;;12.15;5.45;;;9.90;99.90;;;;;;5031205;28;20195;-45
2023/03/22 04:59:47;;;;;;;8.60;6.07;;;10.00;99.90;;;;;;5033356;28;20179;-45
2023/03/22 05:02:13;;;;;;;13.70;6.68;;;;;;;;;;5035346;28;20178;-46
2023/03/22 05:04:39;;;;;;;8.15;5.43;;;9.90;99.90;;;;;;5034966;28;20201;-45
2023/03/22 05:07:04;;;;;;;8.75;5.65;;;9.80;99.90;;;;;;5035057;28;20178;-47
2023/03/22 05:09:30;;;;;;;9.50;5.93;;;9.90;99.90;;;;;;5035114;28;20225;-45
2023/03/22 05:11:56;;;;;;;11.07;5.18;;;9.90;99.90;;;;;;5034886;28;20573;-47
2023/03/22 05:14:21;;;;;;;13.95;5.05;;;;;;;;;;5034817;28;20633;-46
2023/03/22 05:16:47;;;;;;;8.65;5.35;;;10.00;99.90;;;;;;5034885;28;20175;-45
2023/03/22 05:19:12;;;;;;;14.35;5.53;;;10.10;99.90;;;;;;5034794;28;20250;-45
2023/03/22 05:21:42;;;;;;;11.23;5.32;;;10.10;99.90;;;;;;5034879;28;20203;-45
2023/03/22 05:24:09;;;;;;;10.25;5.60;;;10.10;99.90;;;;;;5034959;28;20171;-45
2023/03/22 05:26:36;;;;;;;9.43;5.97;;;10.20;99.90;;;;;;5035028;28;20182;-45
2023/03/22 05:29:03;;;;;;;7.70;5.55;;;10.20;99.90;;;;;;5035084;28;20221;-45
2023/03/22 05:31:29;;;;;;;10.80;5.75;;;10.30;99.90;;;;;;5034795;28;20186;-44
2023/03/22 05:33:54;;;;;;;8.00;4.80;;;10.30;99.90;;;;;;5034785;28;20198;-45
2023/03/22 05:36:21;;;;;;;11.95;5.32;;;10.40;99.90;;;;;;5034489;28;20701;-46
2023/03/22 05:38:47;;;;;;;11.95;5.80;;;10.40;99.90;;;;;;5034382;28;20627;-45
2023/03/22 05:41:13;;;;;;;9.80;5.25;;;10.40;99.90;;;;;;5034570;28;20185;-45
2023/03/22 05:43:39;;;;;;;11.55;5.10;;;10.40;99.90;;;;;;5034497;28;20174;-45
2023/03/22 05:46:09;;;;;;;9.98;5.03;;;10.40;99.90;;;;;;5034001;28;20207;-45
2023/03/22 05:48:36;;;;;;;11.18;5.93;;;10.30;99.90;;;;;;5034203;28;20267;-45
2023/03/22 05:51:09;;;;;;;9.52;5.10;;;10.30;99.90;;;;;;5034271;28;20650;-45
2023/03/22 05:53:35;;;;;;;8.15;5.07;;;10.40;99.90;;;;;;5034093;28;20176;-45
2023/03/22 05:56:01;;;;;;;12.02;5.55;;;10.40;99.90;;;;;;5034567;28;20221;-46
2023/03/22 05:58:29;;;;;;;7.60;5.22;;;10.30;99.90;;;;;;5034361;28;20174;-44
2023/03/22 06:01:02;;;;;;;7.40;4.88;;;10.40;99.90;;;;;;5034185;28;20172;-45
2023/03/22 06:03:27;;;;;;;9.80;5.13;;;10.40;99.90;;;;;;5034453;28;20508;-45
2023/03/22 06:05:53;;;;;;;10.30;5.50;;;10.50;99.90;;;;;;5033947;28;20210;-45
2023/03/22 06:08:20;;;;;;;7.63;5.20;;;10.40;99.90;;;;;;5033779;28;20226;-46
2023/03/22 06:10:51;;;;;;;7.57;4.70;;;10.50;99.90;;;;;;5033371;28;20175;-45
2023/03/22 06:13:19;;;;;;;16.63;5.65;;;10.50;99.90;;;;;;5033969;28;20224;-45
2023/03/22 06:15:45;;;;;;;10.52;5.05;;;10.60;99.90;;;;;;5033849;28;20174;-45
2023/03/22 06:18:11;;;;;;;14.23;5.25;;;10.60;99.90;;;;;;5033714;28;20179;-45
2023/03/22 06:20:38;;;;;;;17.73;4.95;;;10.80;99.90;;;;;;5033458;28;20176;-45
2023/03/22 06:23:04;;;;;;;13.73;4.68;;;10.90;99.90;;;;;;5033776;28;20649;-53
2023/03/22 06:25:30;;;;;;;12.45;5.00;;;11.10;99.90;;;;;;5034051;28;20199;-54
2023/03/22 06:27:55;;;;;;;12.68;5.20;;;11.10;99.90;;;;;;5033491;28;20186;-54
2023/03/22 06:30:21;;;;;;;9.93;4.43;;;11.20;99.90;;;;;;5033490;28;20183;-54
2023/03/22 06:32:46;;;;;;;12.95;5.07;;;11.20;99.90;;;;;;5033479;28;20780;-54
2023/03/22 06:35:12;;;;;;;17.02;5.60;;;11.30;99.90;;;;;;5033616;28;20174;-53
2023/03/22 06:37:37;;;;;;;16.55;4.45;;;11.30;99.90;;;;;;5033222;28;20568;-45
2023/03/22 06:40:04;;;;;;;16.27;4.85;;;11.30;99.90;;;;;;5033147;28;20595;-45
2023/03/22 06:42:29;;;;;;;13.20;4.03;;;11.40;99.90;;;;;;5033451;28;20640;-45
2023/03/22 06:44:55;;;;;;;9.88;3.97;;;11.40;99.90;;;;;;5033254;28;20210;-45
2023/03/22 06:47:21;;;;;;;11.90;4.20;;;11.40;99.90;;;;;;5031828;28;20182;-46
2023/03/22 06:49:47;;;;;;;13.32;4.13;;;11.40;99.90;;;;;;5033459;28;20541;-45
2023/03/22 06:52:12;;;;;;;16.80;5.68;;;11.50;99.90;;;;;;5033036;28;20631;-47
2023/03/22 06:54:38;;;;;;;17.80;5.57;;;11.50;99.90;;;;;;5033028;28;20182;-45
2023/03/22 06:57:04;;;;;;;21.05;6.20;;;11.50;99.90;;;;;;5033096;28;20171;-46
2023/03/22 06:59:29;;;;;;;15.40;5.15;;;11.60;99.90;;;;;;5033082;28;20233;-46
2023/03/22 07:01:55;;;;;;;20.08;4.97;;;11.60;99.90;;;;;;5033111;28;20175;-45
2023/03/22 07:04:21;;;;;;;15.85;4.38;;;11.70;99.90;;;;;;5031327;28;20178;-45
2023/03/22 07:06:47;;;;;;;10.68;3.33;;;;;;;;;;5033035;28;20179;-45
2023/03/22 07:09:13;;;;;;;13.00;4.30;;;;;;;;;;5032486;28;20223;-47
2023/03/22 07:11:38;;;;;;;13.60;3.08;;;11.80;99.90;;;;;;5032825;28;20211;-45
2023/03/22 07:14:04;;;;;;;17.40;4.78;;;11.90;99.90;;;;;;5032991;28;20225;-45
2023/03/22 07:16:29;;;;;;;15.48;3.95;;;12.20;99.90;;;;;;5033326;28;20521;-45
2023/03/22 07:18:56;;;;;;;8.75;3.13;;;;;;;;;;5032395;28;20164;-45
2023/03/22 07:21:21;;;;;;;10.63;3.92;;;12.30;99.90;;;;;;5031429;28;20523;-52
2023/03/22 07:23:47;;;;;;;12.98;3.67;;;12.30;99.90;;;;;;5032590;28;20197;-54
2023/03/22 07:26:12;;;;;;;10.68;3.63;;;12.40;99.90;;;;;;5032257;28;20284;-54
2023/03/22 07:28:40;;;;;;;11.85;3.63;;;12.50;99.90;;;;;;5031768;28;20171;-55
2023/03/22 07:31:11;;;;;;;14.02;3.42;;;12.50;99.90;;;;;;5032700;28;20207;-53
2023/03/22 07:33:38;;;;;;;11.68;4.20;;;12.50;99.90;;;;;;5032185;28;20168;-51
2023/03/22 07:36:06;;;;;;;7.20;3.33;;;12.50;99.90;;;;;;5032227;28;20228;-54
2023/03/22 07:38:32;;;;;;;11.48;2.97;;;;;;;;;;5032786;28;20568;-50
2023/03/22 07:40:57;;;;;;;9.57;3.05;;;12.40;99.90;;;;;;5032049;28;20634;-54
2023/03/22 07:43:23;;;;;;;7.00;3.28;;;12.30;99.90;;;;;;5031886;28;20660;-54
2023/03/22 07:45:50;;;;;;;8.80;2.65;;;12.30;99.90;;;;;;5031727;28;20249;-53
2023/03/22 07:48:16;;;;;;;9.00;2.38;;;12.30;99.90;;;;;;5031984;28;20172;-55
2023/03/22 07:50:42;;;;;;;8.90;2.95;;;12.40;99.90;;;;;;5031984;28;20171;-55
2023/03/22 07:53:08;;;;;;;11.18;2.97;;;12.50;99.90;;;;;;5031868;28;20217;-48
2023/03/22 07:55:35;;;;;;;8.68;2.63;;;12.50;99.90;;;;;;5031049;28;20260;-46
2023/03/22 07:58:01;;;;;;;7.03;2.33;;;;;;;;;;5031946;28;20175;-45
2023/03/22 08:00:27;;;;;;;9.73;2.35;;;12.80;99.90;;;;;;5031852;28;20179;-48
2023/03/22 08:02:53;;;;;;;4.40;2.05;;;12.90;99.90;;;;;;5031694;28;20654;-48
2023/03/22 08:05:18;;;;;;;8.18;2.00;;;13.00;99.90;;;;;;5030168;28;20282;-46
2023/03/22 08:07:44;;;;;;;7.65;1.77;;;13.00;99.90;;;;;;5031488;28;20709;-45
2023/03/22 08:10:10;;;;;;;2.00;1.60;;;;;;;;;;5031751;28;20693;-51
2023/03/22 08:12:36;;;;;;;6.13;2.05;;;;;;;;;;5031422;28;20577;-47
2023/03/22 08:15:02;;;;;;;4.07;1.52;;;13.10;99.90;;;;;;5031400;28;20174;-45
2023/03/22 08:17:29;;;;;;;4.32;2.20;;;13.20;99.90;;;;;;5031217;28;20172;-48
2023/03/22 08:19:55;;;;;;;4.78;1.70;;;13.20;99.90;;;;;;5031238;28;20163;-49
2023/03/22 08:22:24;;;;;;;7.30;1.80;;;13.10;99.90;;;;;;5031120;28;20171;-46
2023/03/22 08:24:51;;;;;;;8.05;1.85;;;13.20;99.90;;;;;;5031475;28;20230;-48
2023/03/22 08:27:17;;;;;;;3.35;1.60;;;13.30;99.90;;;;;;5030590;28;20167;-46
2023/03/22 08:29:45;;;;;;;3.83;1.30;;;13.30;99.90;;;;;;5030990;28;20175;-44
2023/03/22 08:32:11;;;;;;;5.53;1.75;;;13.30;99.90;;;;;;5030961;28;20178;-47
2023/03/22 08:34:38;;;;;;;3.08;1.30;;;13.50;99.90;;;;;;5030369;28;20163;-44
2023/03/22 08:37:05;;;;;;;2.70;1.35;;;13.40;99.90;;;;;;5030450;28;20175;-46
2023/03/22 08:39:31;;;;;;;4.28;1.38;;;;;;;;;;5030830;28;20170;-52
2023/03/22 08:41:57;;;;;;;2.55;1.40;;;;;;;;;;5030260;28;20273;-54
2023/03/22 08:44:23;;;;;;;1.77;1.17;;;13.30;99.90;;;;;;5030155;28;20303;-55
2023/03/22 08:46:48;;;;;;;6.95;1.75;;;13.30;99.90;;;;;;5030806;28;20635;-54
2023/03/22 08:49:15;;;;;;;2.97;1.45;;;;;;;;;;5030815;28;20214;-53
2023/03/22 08:51:41;;;;;;;3.78;1.50;;;13.20;99.90;;;;;;5031147;28;20167;-48
2023/03/22 08:54:07;;;;;;;4.22;1.27;;;13.10;99.90;;;;;;5031041;28;20587;-55
2023/03/22 08:56:36;;;;;;;3.97;1.33;;;13.00;99.90;;;;;;5031180;28;20636;-54
2023/03/22 08:59:06;;;;;;;5.00;1.50;;;13.10;99.90;;;;;;5031056;28;20183;-54
2023/03/22 09:01:33;;;;;;;3.00;1.30;;;13.20;99.90;;;;;;5031349;28;20178;-53
2023/03/22 09:03:59;;;;;;;3.03;1.45;;;;;;;;;;5031489;28;20651;-54
2023/03/22 09:06:25;;;;;;;3.60;1.05;;;13.40;99.90;;;;;;5031010;28;20245;-54
2023/03/22 09:08:51;;;;;;;2.88;1.02;;;13.40;99.90;;;;;;5030856;28;20218;-53
2023/03/22 09:11:18;;;;;;;6.65;1.42;;;13.40;99.90;;;;;;5030857;28;20171;-54
2023/03/22 09:13:44;;;;;;;1.80;1.25;;;13.30;99.90;;;;;;5030418;28;20171;-45
2023/03/22 09:16:09;;;;;;;1.63;1.10;;;13.20;99.90;;;;;;5030842;28;20220;-45
2023/03/22 09:18:37;;;;;;;7.53;1.83;;;13.30;99.90;;;;;;5031060;28;20164;-45
2023/03/22 09:21:04;;;;;;;4.50;1.70;;;13.40;99.90;;;;;;5031196;28;20171;-45
2023/03/22 09:23:31;;;;;;;4.50;1.40;;;13.40;99.90;;;;;;5031501;28;20221;-44
2023/03/22 09:26:00;;;;;;;3.25;1.27;;;13.80;99.90;;;;;;5030912;28;20211;-45
2023/03/22 09:28:26;;;;;;;3.42;1.67;;;13.90;99.90;;;;;;5030804;28;20643;-44
2023/03/22 09:30:52;;;;;;;3.50;1.00;;;;;;;;;;5030744;28;20184;-45
2023/03/22 09:33:18;;;;;;;4.40;1.20;;;13.80;99.90;;;;;;5030770;28;20642;-44
2023/03/22 09:35:43;;;;;;;7.15;1.30;;;13.80;99.90;;;;;;5030754;28;20175;-47
2023/03/22 09:38:09;;;;;;;5.15;1.40;;;13.80;99.90;;;;;;5030545;28;20168;-44
2023/03/22 09:40:42;;;;;;;4.88;2.05;;;13.80;99.90;;;;;;5030591;28;20528;-44
2023/03/22 09:43:11;;;;;;;3.45;1.70;;;13.70;99.90;;;;;;5030908;28;20175;-44
2023/03/22 09:45:41;;;;;;;8.10;1.50;;;13.90;99.90;;;;;;5032591;28;20275;-44
2023/03/22 09:48:17;;;;;;;3.67;1.30;;;14.10;99.90;;;;;;5034627;28;20199;-44
2023/03/22 09:50:49;;;;;;;6.78;1.40;;;14.00;99.90;;;;;;5034668;28;20179;-45
2023/03/22 09:53:16;;;;;;;5.05;1.17;;;13.90;99.90;;;;;;5034287;28;20517;-45
2023/03/22 09:56:00;;;;;;;2.50;1.45;;;13.80;99.90;;;;;;5034275;28;20270;-45
2023/03/22 09:58:43;;;;;;;2.78;1.08;;;14.00;99.90;;;;;;5033855;28;20171;-45
2023/03/22 10:01:18;;;;;;;4.60;1.55;;;14.10;99.90;;;;;;5034125;28;20565;-44
2023/03/22 10:04:03;;;;;;;0.95;0.77;;;14.20;99.90;;;;;;5034026;28;20163;-45
2023/03/22 10:06:29;;;;;;;5.60;1.30;;;14.30;99.90;;;;;;5034332;28;20215;-44
2023/03/22 10:09:02;;;;;;;3.75;2.00;;;14.50;99.90;;;;;;5033837;28;20754;-45
2023/03/22 10:12:06;;;;;;;2.70;1.20;;;14.60;99.90;;;;;;5034392;28;20175;-44
2023/03/22 10:14:38;;;;;;;2.28;1.27;;;14.60;99.90;;;;;;5034343;28;20635;-45
2023/03/22 10:17:10;;;;;;;3.92;1.52;;;14.60;99.90;;;;;;5033486;28;20168;-45
2023/03/22 10:19:40;;;;;;;5.20;2.08;;;14.60;99.90;;;;;;5033460;28;20586;-45
2023/03/22 10:22:07;;;;;;;5.50;1.67;;;14.80;99.90;;;;;;5033705;28;20175;-44
2023/03/22 10:24:37;;;;;;;12.05;1.50;;;14.60;99.90;;;;;;5033784;28;20245;-45
2023/03/22 10:27:06;;;;;;;5.20;1.63;;;14.50;99.90;;;;;;5033986;28;20214;-46
2023/03/22 10:29:38;;;;;;;9.75;1.67;;;14.30;99.90;;;;;;5033761;28;20171;-45
2023/03/22 10:32:28;;;;;;;6.05;1.60;;;14.30;99.90;;;;;;5033718;28;20168;-45
2023/03/22 10:34:54;;;;;;;3.75;1.48;;;;;;;;;;5033550;28;20167;-45
2023/03/22 10:37:23;;;;;;;3.00;1.20;;;14.10;99.90;;;;;;5033133;28;20163;-44
2023/03/22 10:39:55;;;;;;;4.18;1.40;;;14.00;99.90;;;;;;5033455;28;20186;-45
2023/03/22 10:42:25;;;;;;;3.30;1.70;;;14.00;99.90;;;;;;5033320;28;20366;-45
2023/03/22 10:45:22;;;;;;;3.25;1.50;;;14.10;99.90;;;;;;5033175;28;20681;-44
2023/03/22 10:47:56;;;;;;;1.98;1.42;;;14.20;99.90;;;;;;5032930;28;20225;-45
2023/03/22 10:50:35;;;;;;;4.90;1.77;;;14.10;99.90;;;;;;5033411;28;20181;-45
2023/03/22 10:53:30;;;;;;;2.00;1.60;;;14.20;99.90;;;;;;5033688;28;20658;-44
2023/03/22 10:55:56;;;;;;;2.63;1.10;;;14.10;99.90;;;;;;5031070;28;20302;-45
2023/03/22 10:58:28;;;;;;;1.70;1.10;;;13.90;99.90;;;;;;5032507;28;20190;-45
2023/03/22 11:00:58;;;;;;;3.08;1.23;;;13.90;99.90;;;;;;5033121;28;20270;-45
2023/03/22 11:03:28;;;;;;;3.45;1.20;;;13.90;99.90;;;;;;5033204;28;20245;-45
2023/03/22 11:06:09;;;;;;;7.40;1.65;;;13.90;99.90;;;;;;5031440;28;20211;-44
2023/03/22 11:08:51;;;;;;;3.08;1.35;;;13.80;99.90;;;;;;5032100;28;20717;-44
2023/03/22 11:11:24;;;;;;;3.50;1.48;;;13.90;99.90;;;;;;5032117;28;20171;-46
2023/03/22 11:14:01;;;;;;;3.22;1.40;;;13.90;99.90;;;;;;5031686;28;20217;-44
2023/03/22 11:16:27;;;;;;;3.75;1.40;;;13.90;99.90;;;;;;5030163;28;20171;-45
2023/03/22 11:18:54;;;;;;;4.05;1.42;;;14.00;99.90;;;;;;5031662;28;20171;-45
2023/03/22 11:21:27;;;;;;;2.95;1.30;;;13.90;99.90;;;;;;5032095;28;20171;-45
2023/03/22 11:23:59;;;;;;;3.95;1.50;;;14.00;99.90;;;;;;5032029;28;20175;-44
2023/03/22 11:26:30;;;;;;;4.40;1.92;;;14.00;99.90;;;;;;5031656;28;20540;-44
2023/03/22 11:29:12;;;;;;;6.47;1.67;;;14.00;99.90;;;;;;5031481;28;20172;-44
2023/03/22 11:31:58;;;;;;;6.63;1.58;;;13.90;99.90;;;;;;5031592;28;20171;-44
2023/03/22 11:34:29;;;;;;;6.05;1.60;;;13.80;99.90;;;;;;5031317;28;20635;-45
2023/03/22 11:36:59;;;;;;;4.97;1.20;;;13.80;99.90;;;;;;5031833;28;20177;-45
2023/03/22 11:39:27;;;;;;;6.63;1.92;;;13.80;99.90;;;;;;5031205;28;20198;-44
2023/03/22 11:42:00;;;;;;;4.28;1.40;;;13.80;99.90;;;;;;5031316;28;20654;-45
2023/03/22 11:44:30;;;;;;;1.30;1.20;;;13.60;99.90;;;;;;5031249;28;20616;-45
2023/03/22 11:46:59;;;;;;;3.45;1.20;;;13.80;99.90;;;;;;5030950;28;20221;-45
2023/03/22 11:49:47;;;;;;;2.00;1.25;;;13.80;99.90;;;;;;5031418;28;20182;-45
2023/03/22 11:52:23;;;;;;;4.45;1.80;;;14.00;99.90;;;;;;5031006;28;20221;-45
2023/03/22 11:54:49;;;;;;;4.57;1.20;;;14.20;99.90;;;;;;5031208;28;20250;-45
2023/03/22 11:57:19;;;;;;;4.68;1.77;;;14.20;99.90;;;;;;5031453;28;20172;-45
2023/03/22 12:00:10;;;;;;;4.05;1.63;;;14.30;99.90;;;;;;5031575;28;20178;-44
2023/03/22 12:03:00;;;;;;;4.15;1.40;;;14.50;99.90;;;;;;5030183;28;20530;-44
2023/03/22 12:05:29;;;;;;;4.38;1.67;;;14.50;99.90;;;;;;5031378;28;20230;-44
2023/03/22 12:08:05;;;;;;;4.38;1.67;;;14.40;99.90;;;;;;4991527;28;1138336;-45
2023/03/22 12:10:43;;;;;;;2.38;1.23;;;14.30;99.90;;;;;;5032264;28;20197;-45
2023/03/22 12:13:31;;;;;;;3.95;1.95;;;14.40;99.90;;;;;;5031602;28;20643;-44
2023/03/22 12:16:01;;;;;;;2.72;1.40;;;14.40;99.90;;;;;;5031512;28;20171;-44
2023/03/22 12:19:03;;;;;;;5.85;1.52;;;14.50;99.90;;;;;;5031687;28;20211;-44
2023/03/22 12:21:30;;;;;;;2.97;1.30;;;14.50;99.90;;;;;;5030608;28;20254;-46
2023/03/22 12:24:01;;;;;;;9.35;4.35;;;14.60;99.90;;;;;;5031599;28;20164;-44
2023/03/22 12:26:28;;;;;;;4.90;1.83;;;14.50;99.90;;;;;;5031069;28;20202;-45
2023/03/22 12:29:04;;;;;;;2.13;1.10;;;14.40;99.90;;;;;;5031154;28;20171;-44
2023/03/22 12:31:39;;;;;;;5.75;1.75;;;14.50;99.90;;;;;;5031955;28;20175;-44
2023/03/22 12:34:18;;;;;;;4.00;2.03;;;14.50;99.90;;;;;;5031323;28;20191;-44
2023/03/22 12:36:51;;;;;;;3.45;1.40;;;14.30;99.90;;;;;;5031348;28;20155;-45
2023/03/22 12:39:52;;;;;;;10.52;2.80;;;14.20;99.90;;;;;;5031166;28;20170;-45
2023/03/22 12:42:33;;;;;;;3.17;1.98;;;14.10;99.90;;;;;;5031139;28;20159;-45
2023/03/22 12:45:10;;;;;;;4.40;1.50;;;14.00;99.90;;;;;;5031273;28;20286;-45
2023/03/22 12:47:44;;;;;;;5.55;1.55;;;13.80;99.90;;;;;;5017283;28;20242;-45
2023/03/22 12:50:11;;;;;;;4.72;1.95;;;13.80;99.90;;;;;;5031153;28;20238;-45
2023/03/22 12:52:55;;;;;;;5.53;2.10;;;13.70;99.90;;;;;;5031463;28;20171;-45
2023/03/22 12:55:28;;;;;;;5.15;1.95;;;13.70;99.90;;;;;;5031455;28;20181;-45
2023/03/22 12:57:55;;;;;;;5.68;2.03;;;13.60;99.90;;;;;;5031004;28;20163;-46
2023/03/22 13:00:37;;;;;;;6.78;1.95;;;13.60;99.90;;;;;;5031203;28;20563;-45
2023/03/22 13:03:14;;;;;;;5.30;2.10;;;13.60;99.90;;;;;;5031089;28;20167;-46
2023/03/22 13:05:40;;;;;;;8.07;2.78;;;13.60;99.90;;;;;;5029333;28;20214;-49